Terminal Aerodrome Forecast
Issued by NWS

Home | Current Version | Previous Version | Text Only | Print | Product List | Glossary On
Versions: 1 2 3 4 5 6 7 8 9 10 11 12 13 14 15 16 17 18 19 20
000
FTUS45 KABQ 250500
TAFTCC
TAF
KTCC 250525Z 2506/2606 19011KT P6SM FEW250
     FM251600 23015G25KT P6SM SCT200
     FM251800 23024G34KT P6SM SCT250
     FM260200 23014G24KT P6SM BKN250
     FM260400 23011KT P6SM BKN250=

USA.gov is the U.S. government's official web portal to all federal, state and local government web resources and services.